Time;durP1;ratioP1;P1;durP2;ratioP2;P2;SDS_P1;SDS_P2;PMS_P1;PMS_P2;Temp;Humidity;BMP_temperature;BMP_pressure;BME280_temperature;BME280_humidity;BME280_pressure;Samples;Min_cycle;Max_cycle;Signal;HPM_P1;HPM_P2
2022/02/18 00:00:14;;;;;;;11.35;2.40;;;7.10;99.90;;;;;;5071076;28;20521;-72
2022/02/18 00:02:44;;;;;;;13.15;2.60;;;7.00;99.90;;;;;;5072381;28;20067;-72
2022/02/18 00:05:16;;;;;;;10.50;3.05;;;7.00;99.90;;;;;;5070952;28;20037;-73
2022/02/18 00:07:48;;;;;;;10.77;3.17;;;7.00;99.90;;;;;;5071151;28;20033;-72
2022/02/18 00:10:20;;;;;;;12.98;2.75;;;7.10;99.90;;;;;;5072355;28;20040;-72
2022/02/18 00:12:48;;;;;;;15.00;3.75;;;7.10;99.90;;;;;;5070238;28;20135;-72
2022/02/18 00:15:20;;;;;;;14.77;3.28;;;7.10;99.90;;;;;;5071038;28;20036;-72
2022/02/18 00:17:51;;;;;;;19.85;3.28;;;7.10;99.90;;;;;;5072009;28;20128;-72
2022/02/18 00:20:20;;;;;;;12.23;2.95;;;7.20;99.90;;;;;;5072008;28;20087;-72
2022/02/18 00:22:47;;;;;;;20.52;3.03;;;7.20;99.90;;;;;;5053635;28;20059;-72
2022/02/18 00:25:22;;;;;;;11.93;2.65;;;7.20;99.90;;;;;;5070747;28;20040;-72
2022/02/18 00:27:57;;;;;;;9.05;3.47;;;7.30;99.90;;;;;;5054027;28;20056;-73
2022/02/18 00:30:30;;;;;;;15.48;3.85;;;7.20;99.90;;;;;;5070659;28;20132;-72
2022/02/18 00:33:07;;;;;;;11.90;3.03;;;7.30;99.90;;;;;;5053421;28;20037;-72
2022/02/18 00:35:39;;;;;;;16.25;2.45;;;7.30;99.90;;;;;;5053682;28;20040;-72
2022/02/18 00:38:12;;;;;;;15.68;2.50;;;7.30;99.90;;;;;;5053783;28;20506;-72
2022/02/18 00:40:45;;;;;;;10.82;2.65;;;7.30;99.90;;;;;;5053824;28;20534;-72
2022/02/18 00:43:21;;;;;;;11.05;3.33;;;7.30;99.90;;;;;;5073164;28;20502;-72
2022/02/18 00:45:52;;;;;;;15.48;4.07;;;7.20;99.90;;;;;;5089742;28;20135;-72
2022/02/18 00:48:24;;;;;;;13.07;3.17;;;7.20;99.90;;;;;;5090500;28;20139;-72
2022/02/18 00:50:56;;;;;;;11.20;2.60;;;7.20;99.90;;;;;;5089701;28;20147;-72
2022/02/18 00:53:29;;;;;;;13.40;3.55;;;7.20;99.90;;;;;;5089873;28;20066;-72
2022/02/18 00:56:01;;;;;;;14.20;3.60;;;7.20;99.90;;;;;;5073749;28;20040;-72
2022/02/18 00:58:27;;;;;;;13.93;3.13;;;7.20;99.90;;;;;;5091659;28;20126;-72
2022/02/18 01:01:01;;;;;;;13.82;2.72;;;7.20;99.90;;;;;;5073438;28;20071;-72
2022/02/18 01:03:32;;;;;;;13.80;3.30;;;7.10;99.90;;;;;;5091454;28;20123;-72
2022/02/18 01:05:59;;;;;;;16.83;4.22;;;7.10;99.90;;;;;;5073516;28;20134;-72
2022/02/18 01:08:31;;;;;;;12.98;2.97;;;7.10;99.90;;;;;;5073383;28;20044;-72
2022/02/18 01:11:04;;;;;;;12.02;2.72;;;7.10;99.90;;;;;;5073476;28;20433;-71
2022/02/18 01:13:31;;;;;;;14.23;3.15;;;7.10;99.90;;;;;;5089805;28;20151;-72
2022/02/18 01:16:03;;;;;;;14.18;2.60;;;7.10;99.90;;;;;;5073283;28;20138;-72
2022/02/18 01:18:34;;;;;;;15.30;2.53;;;7.10;99.90;;;;;;5073380;28;20051;-72
2022/02/18 01:21:03;;;;;;;9.93;2.58;;;7.10;99.90;;;;;;5074079;28;20043;-72
2022/02/18 01:23:35;;;;;;;9.95;2.17;;;7.10;99.90;;;;;;5072875;28;20083;-71
2022/02/18 01:26:04;;;;;;;11.20;1.98;;;7.10;99.90;;;;;;5073236;28;20066;-72
2022/02/18 01:28:37;;;;;;;11.85;2.78;;;7.10;99.90;;;;;;5090081;28;20044;-72
2022/02/18 01:31:11;;;;;;;11.13;2.22;;;7.10;99.90;;;;;;5072621;28;20040;-72
2022/02/18 01:33:39;;;;;;;12.20;2.15;;;7.20;99.90;;;;;;5089580;28;20064;-72
2022/02/18 01:36:11;;;;;;;13.75;3.00;;;7.30;99.90;;;;;;5091311;28;20131;-71
2022/02/18 01:38:44;;;;;;;10.45;2.22;;;7.30;99.90;;;;;;5091245;28;20036;-72
2022/02/18 01:41:16;;;;;;;28.15;4.82;;;7.30;99.90;;;;;;5091293;28;20064;-72
2022/02/18 01:43:57;;;;;;;10.93;3.00;;;7.40;99.90;;;;;;5072578;28;20101;-72
2022/02/18 01:46:28;;;;;;;10.73;2.22;;;7.40;99.90;;;;;;5089784;28;20040;-72
2022/02/18 01:49:02;;;;;;;13.27;2.20;;;7.40;99.90;;;;;;5090321;28;20423;-72
2022/02/18 01:51:33;;;;;;;9.93;2.35;;;7.50;99.90;;;;;;5073057;28;20134;-72
2022/02/18 01:54:06;;;;;;;11.10;2.95;;;7.40;99.90;;;;;;5090346;28;20139;-72
2022/02/18 01:56:38;;;;;;;11.73;2.95;;;7.50;99.90;;;;;;5077773;28;20570;-72
2022/02/18 01:59:06;;;;;;;11.43;2.33;;;7.50;99.90;;;;;;5076264;28;20405;-72
2022/02/18 02:01:38;;;;;;;11.25;2.38;;;7.50;99.90;;;;;;5094347;28;20043;-72
2022/02/18 02:04:11;;;;;;;16.60;3.53;;;7.50;99.90;;;;;;5075905;28;20071;-72
2022/02/18 02:06:45;;;;;;;16.75;3.85;;;7.50;99.90;;;;;;5092884;28;20322;-72
2022/02/18 02:09:17;;;;;;;13.25;3.15;;;7.50;99.90;;;;;;5075934;28;20040;-72
2022/02/18 02:11:44;;;;;;;13.82;2.88;;;7.60;99.90;;;;;;5075779;28;20048;-72
2022/02/18 02:14:16;;;;;;;5.72;1.65;;;7.60;99.90;;;;;;5075518;28;20036;-72
2022/02/18 02:16:48;;;;;;;10.95;2.83;;;7.60;99.90;;;;;;5075908;28;20126;-72
2022/02/18 02:19:15;;;;;;;13.05;2.70;;;7.60;99.90;;;;;;5092870;28;20052;-72
2022/02/18 02:21:51;;;;;;;12.70;2.50;;;7.60;99.90;;;;;;5075749;28;20127;-72
2022/02/18 02:24:24;;;;;;;13.25;2.90;;;7.70;99.90;;;;;;5092342;28;20040;-71
2022/02/18 02:26:57;;;;;;;12.98;3.03;;;7.60;99.90;;;;;;5075579;28;20067;-71
2022/02/18 02:29:24;;;;;;;12.52;2.83;;;7.70;99.90;;;;;;5092479;28;20040;-72
2022/02/18 02:31:57;;;;;;;13.40;2.58;;;7.70;99.90;;;;;;5092402;28;20040;-72
2022/02/18 02:34:29;;;;;;;11.60;2.67;;;7.70;99.90;;;;;;5092021;28;20040;-72
2022/02/18 02:37:01;;;;;;;12.70;3.07;;;7.70;99.90;;;;;;5091465;28;20040;-72
2022/02/18 02:39:34;;;;;;;11.50;3.05;;;7.80;99.90;;;;;;5092425;28;20394;-72
2022/02/18 02:42:08;;;;;;;11.80;2.78;;;7.80;99.90;;;;;;5075194;28;20503;-72
2022/02/18 02:44:43;;;;;;;13.73;2.13;;;7.80;99.90;;;;;;5074967;28;20051;-71
2022/02/18 02:47:18;;;;;;;17.55;4.85;;;7.80;99.90;;;;;;5075198;28;20040;-72
2022/02/18 02:49:58;;;;;;;11.32;2.70;;;7.80;99.90;;;;;;5075438;28;20040;-72
2022/02/18 02:52:31;;;;;;;11.80;3.10;;;7.80;99.90;;;;;;5075026;28;20418;-72
2022/02/18 02:55:10;;;;;;;12.15;2.38;;;7.80;99.90;;;;;;5092094;28;20048;-72
2022/02/18 02:57:44;;;;;;;9.77;2.25;;;7.90;99.90;;;;;;5059322;28;20529;-72
2022/02/18 03:00:18;;;;;;;12.98;2.75;;;7.90;99.90;;;;;;5074869;28;20052;-73
2022/02/18 03:02:46;;;;;;;8.90;1.95;;;7.90;99.90;;;;;;5091521;28;20044;-72
2022/02/18 03:05:29;;;;;;;15.13;2.58;;;7.90;99.90;;;;;;5090863;28;20082;-72
2022/02/18 03:08:03;;;;;;;21.67;3.53;;;7.90;99.90;;;;;;5090692;28;20101;-72
2022/02/18 03:10:34;;;;;;;9.15;2.63;;;8.00;99.90;;;;;;5093113;28;20036;-71
2022/02/18 03:13:12;;;;;;;13.52;3.03;;;8.00;99.90;;;;;;5074425;28;20036;-72
2022/02/18 03:15:44;;;;;;;12.65;2.17;;;8.00;99.90;;;;;;5074515;28;20575;-72
2022/02/18 03:18:16;;;;;;;14.38;2.60;;;8.00;99.90;;;;;;5092931;28;20041;-71
2022/02/18 03:20:55;;;;;;;10.85;2.20;;;8.00;99.90;;;;;;5074642;28;20054;-72
2022/02/18 03:23:29;;;;;;;13.77;2.60;;;8.00;99.90;;;;;;5074052;28;20048;-72
2022/02/18 03:25:56;;;;;;;13.35;3.28;;;8.00;99.90;;;;;;5091293;28;20036;-72
2022/02/18 03:28:30;;;;;;;;;;;7.90;99.90;;;;;;5075148;28;20044;-72
2022/02/18 03:31:08;;;;;;;13.63;2.60;;;7.90;99.90;;;;;;5074349;28;19963;-72
2022/02/18 03:33:41;;;;;;;8.73;2.20;;;7.80;99.90;;;;;;5090627;28;20040;-72
2022/02/18 03:36:14;;;;;;;14.57;2.72;;;7.80;99.90;;;;;;5091072;28;20040;-72
2022/02/18 03:38:46;;;;;;;12.63;2.45;;;7.90;99.90;;;;;;5074122;28;20040;-72
2022/02/18 03:41:18;;;;;;;14.80;2.63;;;7.90;99.90;;;;;;5074303;28;20048;-73
2022/02/18 03:43:50;;;;;;;18.38;3.70;;;7.90;99.90;;;;;;5073891;28;20494;-72
2022/02/18 03:46:23;;;;;;;17.65;3.50;;;8.00;99.90;;;;;;5074432;28;20048;-72
2022/02/18 03:48:58;;;;;;;12.30;3.08;;;8.00;99.90;;;;;;5074134;28;20039;-72
2022/02/18 03:51:31;;;;;;;13.77;3.72;;;8.00;99.90;;;;;;5092266;28;20046;-72
2022/02/18 03:53:58;;;;;;;14.05;2.72;;;8.00;99.90;;;;;;5090503;28;20044;-73
2022/02/18 03:56:27;;;;;;;12.27;2.60;;;8.00;99.90;;;;;;5090761;28;20059;-72
2022/02/18 03:58:59;;;;;;;14.30;4.03;;;8.00;99.90;;;;;;5092135;28;20522;-72
2022/02/18 04:01:26;;;;;;;13.93;2.83;;;8.00;99.90;;;;;;5073993;28;20418;-72
2022/02/18 04:03:58;;;;;;;13.02;2.80;;;8.00;99.90;;;;;;5089899;28;20052;-72
2022/02/18 04:06:36;;;;;;;15.15;2.47;;;7.90;99.90;;;;;;5073345;28;20040;-72
2022/02/18 04:09:19;;;;;;;16.60;3.35;;;8.00;99.90;;;;;;5073446;28;20044;-72
2022/02/18 04:12:02;;;;;;;13.30;2.65;;;7.90;99.90;;;;;;5073546;28;20472;-72
2022/02/18 04:14:36;;;;;;;15.18;2.17;;;7.90;99.90;;;;;;5090332;28;20044;-73
2022/02/18 04:17:08;;;;;;;11.13;2.72;;;7.90;99.90;;;;;;5089580;28;20073;-72
2022/02/18 04:19:44;;;;;;;13.05;2.65;;;7.90;99.90;;;;;;5091062;28;20072;-72
2022/02/18 04:22:21;;;;;;;17.70;3.00;;;7.90;99.90;;;;;;5073768;28;20040;-72
2022/02/18 04:24:49;;;;;;;12.23;2.08;;;7.90;99.90;;;;;;5073380;28;20052;-72
2022/02/18 04:27:22;;;;;;;15.23;2.83;;;7.90;99.90;;;;;;5090883;28;20060;-72
2022/02/18 04:29:49;;;;;;;8.75;2.10;;;7.90;99.90;;;;;;5092077;28;20446;-73
2022/02/18 04:32:21;;;;;;;14.13;3.17;;;7.80;99.90;;;;;;5073751;28;20333;-72
2022/02/18 04:34:53;;;;;;;12.70;2.40;;;7.90;99.90;;;;;;5092254;28;20036;-72
2022/02/18 04:37:25;;;;;;;10.93;2.30;;;7.90;99.90;;;;;;5090848;28;20569;-72
2022/02/18 04:39:58;;;;;;;11.82;2.60;;;7.90;99.90;;;;;;5091672;28;20146;-72
2022/02/18 04:42:32;;;;;;;11.77;2.80;;;7.90;99.90;;;;;;5073259;28;20044;-72
2022/02/18 04:44:58;;;;;;;15.52;2.70;;;7.90;99.90;;;;;;5091917;28;20460;-72
2022/02/18 04:47:31;;;;;;;14.10;2.63;;;7.80;99.90;;;;;;5091771;28;20048;-72
2022/02/18 04:50:04;;;;;;;14.25;2.35;;;7.80;99.90;;;;;;5074230;28;20555;-72
2022/02/18 04:52:33;;;;;;;12.85;2.22;;;7.80;99.90;;;;;;5072637;28;20134;-73
2022/02/18 04:55:06;;;;;;;18.98;2.80;;;7.80;99.90;;;;;;5073922;28;20482;-73
2022/02/18 04:57:46;;;;;;;9.18;1.90;;;7.80;99.90;;;;;;5073975;28;20498;-73
2022/02/18 05:00:18;;;;;;;15.93;3.50;;;7.70;99.90;;;;;;5089934;28;20462;-72
2022/02/18 05:02:47;;;;;;;9.95;2.58;;;7.80;99.90;;;;;;5072857;28;20445;-73
2022/02/18 05:05:14;;;;;;;10.88;2.35;;;7.80;99.90;;;;;;5089785;28;20055;-72
2022/02/18 05:07:41;;;;;;;10.50;2.50;;;7.80;99.90;;;;;;5073025;28;20093;-72
2022/02/18 05:10:15;;;;;;;10.00;1.90;;;7.80;99.90;;;;;;5084204;28;20428;-72
2022/02/18 05:12:47;;;;;;;11.73;2.53;;;7.80;99.90;;;;;;5070859;28;20063;-73
2022/02/18 05:15:20;;;;;;;15.50;1.90;;;7.70;99.90;;;;;;5082794;28;20395;-73
2022/02/18 05:17:53;;;;;;;15.43;4.35;;;7.70;99.90;;;;;;5050074;28;20043;-71
2022/02/18 05:20:25;;;;;;;12.93;2.22;;;7.60;99.90;;;;;;5069033;28;20543;-71
2022/02/18 05:23:01;;;;;;;10.40;2.78;;;7.60;99.90;;;;;;5084037;28;20043;-72
2022/02/18 05:25:34;;;;;;;8.18;2.30;;;7.60;99.90;;;;;;5083639;28;20059;-73
2022/02/18 05:28:03;;;;;;;13.65;2.42;;;7.60;99.90;;;;;;5074307;28;20040;-72
2022/02/18 05:30:31;;;;;;;12.45;2.58;;;7.60;99.90;;;;;;5091215;28;20119;-73
2022/02/18 05:32:58;;;;;;;14.15;2.28;;;7.50;99.90;;;;;;5093319;28;20090;-72
2022/02/18 05:35:25;;;;;;;13.95;2.55;;;7.50;99.90;;;;;;5077054;28;20411;-72
2022/02/18 05:37:56;;;;;;;9.05;2.53;;;7.50;99.90;;;;;;5060034;28;20043;-72
2022/02/18 05:40:30;;;;;;;10.80;2.27;;;7.40;99.90;;;;;;5086592;28;20114;-72
2022/02/18 05:43:02;;;;;;;12.52;2.45;;;7.50;99.90;;;;;;5085469;28;20290;-72
2022/02/18 05:45:35;;;;;;;15.00;2.72;;;7.40;99.90;;;;;;5078401;28;20124;-72
2022/02/18 05:48:07;;;;;;;9.52;2.15;;;7.40;99.90;;;;;;5078326;28;20064;-72
2022/02/18 05:50:39;;;;;;;14.25;2.38;;;7.50;99.90;;;;;;5076472;28;20064;-72
2022/02/18 05:53:11;;;;;;;11.85;2.80;;;7.50;99.90;;;;;;5071580;28;20364;-72
2022/02/18 05:55:39;;;;;;;12.68;2.50;;;7.50;99.90;;;;;;5088576;28;20082;-72
2022/02/18 05:58:12;;;;;;;9.38;2.00;;;7.50;99.90;;;;;;5073163;28;20048;-72
2022/02/18 06:00:41;;;;;;;15.77;3.08;;;7.50;99.90;;;;;;5075156;28;20078;-72
2022/02/18 06:03:08;;;;;;;9.95;2.20;;;7.40;99.90;;;;;;5091793;28;20059;-72
2022/02/18 06:05:35;;;;;;;13.27;2.90;;;7.40;99.90;;;;;;5092820;28;20064;-72
2022/02/18 06:08:01;;;;;;;16.23;2.85;;;7.40;99.90;;;;;;5065318;28;20472;-72
2022/02/18 06:10:37;;;;;;;15.35;3.95;;;7.50;99.90;;;;;;5070353;28;20044;-72
2022/02/18 06:13:09;;;;;;;10.18;2.88;;;7.50;99.90;;;;;;5071330;28;20136;-72
2022/02/18 06:15:41;;;;;;;10.38;2.42;;;7.40;99.90;;;;;;5058751;28;20058;-72
2022/02/18 06:18:13;;;;;;;12.60;2.42;;;7.40;99.90;;;;;;5092977;28;20126;-72
2022/02/18 06:20:45;;;;;;;15.03;2.93;;;7.40;99.90;;;;;;5093537;28;20050;-72
2022/02/18 06:23:12;;;;;;;17.00;3.33;;;7.40;99.90;;;;;;5075049;28;20057;-72
2022/02/18 06:25:44;;;;;;;13.27;3.00;;;7.40;99.90;;;;;;5093657;28;20072;-72
2022/02/18 06:28:16;;;;;;;10.45;2.70;;;7.30;99.90;;;;;;5073680;28;20055;-72
2022/02/18 06:30:43;;;;;;;10.73;2.78;;;7.30;99.90;;;;;;5092257;28;20111;-72
2022/02/18 06:33:16;;;;;;;12.90;2.15;;;7.40;99.90;;;;;;5067460;28;20098;-72
2022/02/18 06:35:47;;;;;;;17.92;2.95;;;7.40;99.90;;;;;;5072330;28;20529;-72
2022/02/18 06:38:15;;;;;;;8.70;2.47;;;7.40;99.90;;;;;;5091774;28;20483;-72
2022/02/18 06:40:48;;;;;;;8.82;2.22;;;7.40;99.90;;;;;;5067183;28;20509;-72
2022/02/18 06:43:20;;;;;;;11.77;3.63;;;7.40;99.90;;;;;;5082304;28;20128;-72
2022/02/18 06:45:47;;;;;;;11.50;3.13;;;7.40;99.90;;;;;;5080513;28;20746;-72
2022/02/18 06:48:16;;;;;;;11.43;2.55;;;7.40;99.90;;;;;;5073314;28;20040;-73
2022/02/18 06:50:43;;;;;;;9.70;2.38;;;7.40;99.90;;;;;;5090283;28;20036;-72
2022/02/18 06:53:10;;;;;;;13.70;2.88;;;7.40;99.90;;;;;;5064427;28;20036;-72
2022/02/18 06:55:38;;;;;;;9.93;2.25;;;7.40;99.90;;;;;;5082957;28;20139;-72
2022/02/18 06:58:10;;;;;;;12.63;2.72;;;7.50;99.90;;;;;;5085097;28;20451;-72
2022/02/18 07:00:37;;;;;;;10.55;3.30;;;7.60;99.90;;;;;;5085522;28;20050;-72
2022/02/18 07:03:09;;;;;;;11.65;2.15;;;7.60;99.90;;;;;;5053827;28;20041;-72
2022/02/18 07:05:41;;;;;;;8.13;1.88;;;7.70;99.90;;;;;;5054774;28;20067;-72
2022/02/18 07:08:13;;;;;;;12.65;2.25;;;7.70;99.90;;;;;;5082328;28;20502;-72
2022/02/18 07:10:45;;;;;;;18.63;2.53;;;7.70;99.90;;;;;;5064369;28;20044;-72
2022/02/18 07:13:19;;;;;;;11.70;3.00;;;7.70;99.90;;;;;;5089973;28;20501;-71
2022/02/18 07:15:51;;;;;;;12.68;2.80;;;7.70;99.90;;;;;;5089860;28;20671;-72
2022/02/18 07:18:26;;;;;;;10.77;2.67;;;7.80;99.90;;;;;;5095125;28;20075;-72
2022/02/18 07:20:55;;;;;;;12.20;3.00;;;7.80;99.90;;;;;;5095281;28;20423;-72
2022/02/18 07:23:28;;;;;;;9.43;1.92;;;7.90;99.90;;;;;;5070790;28;20594;-72
2022/02/18 07:26:01;;;;;;;16.25;2.17;;;7.90;99.90;;;;;;5071509;28;20045;-72
2022/02/18 07:28:28;;;;;;;6.63;1.60;;;7.90;99.90;;;;;;5071349;28;20047;-71
2022/02/18 07:31:00;;;;;;;10.60;2.90;;;7.90;99.90;;;;;;5072268;28;20146;-72
2022/02/18 07:33:29;;;;;;;10.25;2.15;;;7.90;99.90;;;;;;5070249;28;20543;-72
2022/02/18 07:36:01;;;;;;;6.82;1.70;;;7.90;99.90;;;;;;5072141;28;20128;-72
2022/02/18 07:38:34;;;;;;;12.25;2.05;;;8.00;99.90;;;;;;5070567;28;20097;-73
2022/02/18 07:41:08;;;;;;;9.35;1.90;;;8.00;99.90;;;;;;5055329;28;20044;-73
2022/02/18 07:43:41;;;;;;;3.83;1.47;;;8.00;99.90;;;;;;5069492;28;20139;-72
2022/02/18 07:46:13;;;;;;;6.40;1.65;;;8.10;99.90;;;;;;5070608;28;20037;-72
2022/02/18 07:48:45;;;;;;;14.13;2.15;;;8.10;99.90;;;;;;5087643;28;20037;-72
2022/02/18 07:51:19;;;;;;;8.63;2.30;;;8.20;99.90;;;;;;5070964;28;20082;-73
2022/02/18 07:53:53;;;;;;;6.35;1.65;;;8.20;99.90;;;;;;5069757;28;20068;-72
2022/02/18 07:56:24;;;;;;;8.10;1.63;;;8.30;99.90;;;;;;5070278;28;20047;-72
2022/02/18 07:58:57;;;;;;;6.10;1.15;;;8.40;99.90;;;;;;5054570;28;20055;-72
2022/02/18 08:01:24;;;;;;;7.50;1.60;;;8.40;99.90;;;;;;5071271;28;20125;-73
2022/02/18 08:03:56;;;;;;;7.88;1.70;;;8.50;99.90;;;;;;5069327;28;20138;-72
2022/02/18 08:06:28;;;;;;;6.63;2.25;;;8.60;99.90;;;;;;5070869;28;20037;-72
2022/02/18 08:09:01;;;;;;;9.57;2.47;;;8.60;99.90;;;;;;5081454;28;20082;-72
2022/02/18 08:11:32;;;;;;;5.53;1.50;;;8.60;99.90;;;;;;5102496;28;20044;-72
2022/02/18 08:14:04;;;;;;;8.68;1.50;;;8.70;99.90;;;;;;5073022;28;20127;-74
2022/02/18 08:16:38;;;;;;;5.38;1.58;;;8.70;99.90;;;;;;5057931;28;20433;-72
2022/02/18 08:19:10;;;;;;;4.85;1.27;;;8.70;99.90;;;;;;5056852;28;20048;-72
2022/02/18 08:21:41;;;;;;;6.35;1.35;;;8.80;99.90;;;;;;5055224;28;20044;-72
2022/02/18 08:24:08;;;;;;;4.95;1.65;;;8.80;99.90;;;;;;5089803;28;20134;-72
2022/02/18 08:26:40;;;;;;;13.73;8.45;;;8.90;99.90;;;;;;5090442;28;20052;-71
2022/02/18 08:29:15;;;;;;;8.40;2.33;;;8.90;99.90;;;;;;5072849;28;20063;-72
2022/02/18 08:31:42;;;;;;;4.97;1.35;;;9.00;99.90;;;;;;5056200;28;20082;-73
2022/02/18 08:34:09;;;;;;;10.68;1.92;;;9.00;99.90;;;;;;5090576;28;20056;-72
2022/02/18 08:36:36;;;;;;;4.35;1.30;;;9.00;99.90;;;;;;5072962;28;20044;-73
2022/02/18 08:39:10;;;;;;;7.82;1.20;;;9.00;99.90;;;;;;5090537;28;20506;-72
2022/02/18 08:41:44;;;;;;;4.75;1.83;;;9.00;99.90;;;;;;5083307;28;20532;-72
2022/02/18 08:44:16;;;;;;;3.42;1.13;;;9.10;99.90;;;;;;5081759;28;20138;-72
2022/02/18 08:46:47;;;;;;;4.35;1.65;;;9.10;99.90;;;;;;5058968;28;20032;-72
2022/02/18 08:49:14;;;;;;;3.85;1.10;;;9.20;99.90;;;;;;5111160;28;20134;-72
2022/02/18 08:51:46;;;;;;;4.72;1.45;;;9.20;99.90;;;;;;5074196;28;20123;-73
2022/02/18 08:54:13;;;;;;;5.60;1.20;;;9.20;99.90;;;;;;5074065;28;20154;-73
2022/02/18 08:56:45;;;;;;;5.03;1.42;;;9.30;99.90;;;;;;5076284;28;20546;-73
2022/02/18 08:59:17;;;;;;;9.65;1.75;;;9.30;99.90;;;;;;5052774;28;20044;-72
2022/02/18 09:01:45;;;;;;;4.13;1.30;;;9.30;99.90;;;;;;5070367;28;20139;-72
2022/02/18 09:04:18;;;;;;;5.85;1.27;;;9.40;99.90;;;;;;5090391;28;20051;-73
2022/02/18 09:06:52;;;;;;;6.32;2.05;;;9.40;99.90;;;;;;5071895;28;20040;-72
2022/02/18 09:09:19;;;;;;;3.88;1.00;;;9.50;99.90;;;;;;5072661;28;20408;-71
2022/02/18 09:11:46;;;;;;;3.95;1.17;;;9.50;99.90;;;;;;5072667;28;20071;-72
2022/02/18 09:14:18;;;;;;;5.47;1.38;;;9.50;99.90;;;;;;5061714;28;20110;-72
2022/02/18 09:17:06;;;;;;;3.83;1.00;;;9.60;99.90;;;;;;5072646;28;20047;-73
2022/02/18 09:19:38;;;;;;;4.13;1.15;;;9.60;99.90;;;;;;5090940;28;20123;-72
2022/02/18 09:22:06;;;;;;;3.53;1.30;;;9.60;99.90;;;;;;5091050;28;20055;-73
2022/02/18 09:24:39;;;;;;;3.10;1.20;;;9.70;99.90;;;;;;5077197;28;20044;-73
2022/02/18 09:27:11;;;;;;;2.53;1.20;;;9.70;99.90;;;;;;5078073;28;20050;-73
2022/02/18 09:29:38;;;;;;;7.00;1.20;;;9.70;99.90;;;;;;5057914;28;20143;-73
2022/02/18 09:32:11;;;;;;;10.13;1.67;;;9.70;99.90;;;;;;5052086;28;20051;-72
2022/02/18 09:34:37;;;;;;;5.82;1.33;;;9.80;99.90;;;;;;5076601;28;20474;-72
2022/02/18 09:37:15;;;;;;;5.32;1.33;;;9.80;99.90;;;;;;5079222;28;20467;-73
2022/02/18 09:39:46;;;;;;;3.38;1.00;;;9.80;99.90;;;;;;5071671;28;20405;-72
2022/02/18 09:42:14;;;;;;;4.95;1.17;;;9.90;99.90;;;;;;5090120;28;20086;-74
2022/02/18 09:44:50;;;;;;;3.60;1.17;;;9.90;99.90;;;;;;5089080;28;20040;-72
2022/02/18 09:47:22;;;;;;;3.30;1.30;;;9.90;99.90;;;;;;5074272;28;20410;-72
2022/02/18 09:49:54;;;;;;;5.65;1.23;;;10.00;99.90;;;;;;5084745;28;20115;-72
2022/02/18 09:52:27;;;;;;;5.82;1.35;;;10.10;99.90;;;;;;5071066;28;20045;-72
2022/02/18 09:54:59;;;;;;;2.97;1.00;;;10.10;99.90;;;;;;5069363;28;20043;-72
2022/02/18 09:57:34;;;;;;;3.60;1.17;;;10.20;99.90;;;;;;5079832;28;20044;-72
2022/02/18 10:00:06;;;;;;;4.45;0.98;;;10.30;99.90;;;;;;5073317;28;20040;-72
2022/02/18 10:02:41;;;;;;;3.42;1.02;;;10.40;99.90;;;;;;5073106;28;20098;-72
2022/02/18 10:05:08;;;;;;;4.03;0.90;;;10.50;99.90;;;;;;5089426;28;20079;-72
2022/02/18 10:08:02;;;;;;;4.28;1.00;;;10.60;99.90;;;;;;5073031;28;20050;-72
2022/02/18 10:10:35;;;;;;;3.25;1.50;;;10.70;99.90;;;;;;5090427;28;20515;-72
2022/02/18 10:13:31;;;;;;;4.50;0.93;;;10.80;99.90;;;;;;5071493;28;20048;-72
2022/02/18 10:16:10;;;;;;;2.80;1.10;;;10.90;99.90;;;;;;5074372;28;20503;-72
2022/02/18 10:18:49;;;;;;;3.08;1.17;;;11.00;99.90;;;;;;5094132;28;20489;-71
2022/02/18 10:21:29;;;;;;;3.88;0.90;;;11.10;99.90;;;;;;5075537;28;20044;-72
2022/02/18 10:24:09;;;;;;;3.17;0.77;;;11.20;99.90;;;;;;5075185;28;20052;-72
2022/02/18 10:26:44;;;;;;;3.05;1.38;;;11.20;99.90;;;;;;5075887;28;20044;-72
2022/02/18 10:29:19;;;;;;;2.03;0.75;;;11.30;99.90;;;;;;5093999;28;20410;-72
2022/02/18 10:32:10;;;;;;;3.92;1.00;;;11.30;99.90;;;;;;5090705;28;20583;-73
2022/02/18 10:34:58;;;;;;;4.72;1.00;;;11.40;99.90;;;;;;5086940;28;20127;-73
2022/02/18 10:37:33;;;;;;;2.88;0.70;;;11.50;99.90;;;;;;5081953;28;20088;-72
2022/02/18 10:40:10;;;;;;;3.78;1.38;;;11.50;99.90;;;;;;5082613;28;20398;-73
2022/02/18 10:42:46;;;;;;;3.60;1.00;;;11.50;99.90;;;;;;5082841;28;20043;-72
2022/02/18 10:45:22;;;;;;;2.08;0.57;;;11.50;99.90;;;;;;5093828;28;20431;-73
2022/02/18 10:48:13;;;;;;;5.47;1.27;;;11.50;99.90;;;;;;5085880;28;20116;-72
2022/02/18 10:50:42;;;;;;;3.95;0.90;;;11.50;99.90;;;;;;5078612;28;20118;-73
2022/02/18 10:53:14;;;;;;;3.17;1.00;;;11.60;99.90;;;;;;5054481;28;20135;-73
2022/02/18 10:56:04;;;;;;;3.22;0.88;;;11.60;99.90;;;;;;5054871;28;20480;-72
2022/02/18 10:58:37;;;;;;;2.72;1.42;;;11.60;99.90;;;;;;5080793;28;20067;-73
2022/02/18 11:01:16;;;;;;;2.22;0.70;;;11.60;99.90;;;;;;5083918;28;20045;-71
2022/02/18 11:04:04;;;;;;;2.55;0.73;;;11.60;99.90;;;;;;5087603;28;20123;-73
2022/02/18 11:06:39;;;;;;;2.78;0.80;;;11.60;99.90;;;;;;5088199;28;20032;-73
2022/02/18 11:09:11;;;;;;;2.75;0.90;;;11.60;99.90;;;;;;5093413;28;20033;-73
2022/02/18 11:11:46;;;;;;;5.30;1.00;;;11.60;99.90;;;;;;5074758;28;20131;-72
2022/02/18 11:14:14;;;;;;;2.80;0.95;;;11.50;99.90;;;;;;5092634;28;20111;-73
2022/02/18 11:16:52;;;;;;;1.95;0.77;;;11.60;99.90;;;;;;5058915;28;20113;-73
2022/02/18 11:19:20;;;;;;;6.17;1.33;;;11.60;99.90;;;;;;5075062;28;20502;-73
2022/02/18 11:21:53;;;;;;;4.95;1.23;;;11.60;99.90;;;;;;5092594;28;20365;-73
2022/02/18 11:24:25;;;;;;;3.20;0.93;;;11.70;99.90;;;;;;5058409;28;20147;-73
2022/02/18 11:27:02;;;;;;;4.07;0.90;;;11.70;99.90;;;;;;5074305;28;20044;-72
2022/02/18 11:29:36;;;;;;;3.15;0.93;;;11.80;99.90;;;;;;5092949;28;20127;-73
2022/02/18 11:32:28;;;;;;;3.28;0.90;;;11.80;99.90;;;;;;5075343;28;20050;-73
2022/02/18 11:35:12;;;;;;;4.65;0.90;;;11.90;99.90;;;;;;5089236;28;20132;-72
2022/02/18 11:37:55;;;;;;;2.45;0.80;;;12.00;99.90;;;;;;5092691;28;20135;-73
2022/02/18 11:40:41;;;;;;;;;;;12.10;99.90;;;;;;5072549;28;20041;-73
2022/02/18 11:43:25;;;;;;;3.58;0.82;;;12.40;99.90;;;;;;5058311;28;19928;-73
2022/02/18 11:45:59;;;;;;;;;;;12.50;99.90;;;;;;5058929;28;20044;-72
2022/02/18 11:48:47;;;;;;;2.03;0.90;;;12.50;99.90;;;;;;5090887;28;19927;-73
2022/02/18 11:51:22;;;;;;;5.75;1.02;;;12.40;99.90;;;;;;5090744;28;20036;-71
2022/02/18 11:53:56;;;;;;;5.28;1.10;;;12.50;99.90;;;;;;5085241;28;20036;-73
2022/02/18 11:56:49;;;;;;;5.07;1.10;;;12.40;99.90;;;;;;5055010;28;20036;-73
2022/02/18 11:59:16;;;;;;;4.15;1.30;;;12.50;99.90;;;;;;5082934;28;20414;-73
2022/02/18 12:02:03;;;;;;;2.97;0.95;;;12.50;99.90;;;;;;5087834;28;20051;-73
2022/02/18 12:04:40;;;;;;;5.88;0.90;;;12.50;99.90;;;;;;5074119;28;20058;-73
2022/02/18 12:07:15;;;;;;;6.20;1.42;;;12.50;99.90;;;;;;5091590;28;20040;-73
2022/02/18 12:09:49;;;;;;;3.00;1.13;;;12.40;99.90;;;;;;5070197;28;20123;-73
2022/02/18 12:12:28;;;;;;;2.15;0.80;;;12.40;99.90;;;;;;5069866;28;20072;-72
2022/02/18 12:15:26;;;;;;;3.50;0.95;;;12.40;99.90;;;;;;5070013;28;20068;-73
2022/02/18 12:18:05;;;;;;;4.88;0.77;;;12.40;99.90;;;;;;5056779;28;20429;-72
2022/02/18 12:20:35;;;;;;;2.35;0.75;;;12.50;99.90;;;;;;5067535;28;20699;-73
2022/02/18 12:23:20;;;;;;;3.60;0.98;;;12.40;99.90;;;;;;5061918;28;20074;-73
2022/02/18 12:26:27;;;;;;;5.90;1.00;;;12.40;99.90;;;;;;5090250;28;20060;-73
2022/02/18 12:29:16;;;;;;;3.40;1.10;;;12.30;99.90;;;;;;5073382;28;20028;-73
2022/02/18 12:31:50;;;;;;;5.95;1.10;;;12.30;99.90;;;;;;5068555;28;20531;-72
2022/02/18 12:34:29;;;;;;;4.70;0.90;;;12.30;99.90;;;;;;5088681;28;20043;-72
2022/02/18 12:36:56;;;;;;;3.08;1.10;;;12.30;99.90;;;;;;5075799;28;20048;-72
2022/02/18 12:39:40;;;;;;;4.30;0.85;;;12.30;99.90;;;;;;5082824;28;20119;-72
2022/02/18 12:42:13;;;;;;;3.95;0.95;;;12.30;99.90;;;;;;5078211;28;20063;-73
2022/02/18 12:44:49;;;;;;;;;;;12.30;99.90;;;;;;5083179;28;20044;-73
2022/02/18 12:47:29;;;;;;;6.00;0.85;;;12.30;99.90;;;;;;5088235;28;20011;-73
2022/02/18 12:50:07;;;;;;;2.83;0.73;;;12.40;99.90;;;;;;5086005;28;20116;-73
2022/02/18 12:52:36;;;;;;;2.13;0.90;;;12.40;99.90;;;;;;5067251;28;20040;-73
2022/02/18 12:55:11;;;;;;;1.25;0.60;;;12.40;99.90;;;;;;5079160;28;20504;-73
2022/02/18 12:57:44;;;;;;;3.95;0.93;;;12.40;99.90;;;;;;5089913;28;20046;-73
2022/02/18 13:00:14;;;;;;;2.60;0.90;;;12.40;99.90;;;;;;5097703;28;20127;-73
2022/02/18 13:02:43;;;;;;;2.65;0.60;;;12.30;99.90;;;;;;5088317;28;20048;-73
2022/02/18 13:05:12;;;;;;;2.90;0.88;;;12.30;99.90;;;;;;5072029;28;20051;-72
2022/02/18 13:07:51;;;;;;;1.00;0.50;;;12.30;99.90;;;;;;5089387;28;20187;-72
2022/02/18 13:10:29;;;;;;;3.00;0.90;;;12.40;99.90;;;;;;5070915;28;20151;-73
2022/02/18 13:13:12;;;;;;;6.88;1.33;;;12.40;99.90;;;;;;5089914;28;20036;-73
2022/02/18 13:15:46;;;;;;;2.42;0.70;;;12.40;99.90;;;;;;5073170;28;20040;-73
2022/02/18 13:18:21;;;;;;;1.10;0.50;;;12.50;99.90;;;;;;5088904;28;20190;-73
2022/02/18 13:20:53;;;;;;;4.17;0.60;;;12.50;99.90;;;;;;5082688;28;20384;-73